Time;durP1;ratioP1;P1;durP2;ratioP2;P2;SDS_P1;SDS_P2;PMS_P1;PMS_P2;Temp;Humidity;BMP_temperature;BMP_pressure;BME280_temperature;BME280_humidity;BME280_pressure;Samples;Min_cycle;Max_cycle;Signal;HPM_P1;HPM_P2
2022/07/03 00:00:15;;;;;;;3.27;2.30;;;16.10;1.00;;;;;;5063135;28;20444;-75
2022/07/03 00:02:40;;;;;;;3.80;2.37;;;16.10;1.00;;;;;;5093053;28;20379;-75
2022/07/03 00:05:07;;;;;;;4.73;2.80;;;16.00;1.00;;;;;;5095550;28;20379;-75
2022/07/03 00:07:45;;;;;;;2.20;2.00;;;16.00;1.00;;;;;;5068067;28;20187;-75
2022/07/03 00:10:10;;;;;;;2.33;2.17;;;16.00;1.00;;;;;;5067960;28;20501;-75
2022/07/03 00:12:45;;;;;;;6.50;2.30;;;15.90;1.00;;;;;;5066752;28;20870;-75
2022/07/03 00:15:14;;;;;;;2.53;2.13;;;15.80;1.00;;;;;;5054273;28;20180;-76
2022/07/03 00:17:40;;;;;;;3.47;2.23;;;15.90;1.00;;;;;;5065994;28;20411;-75
2022/07/03 00:20:09;;;;;;;2.60;2.17;;;15.80;1.00;;;;;;5076960;28;20413;-75
2022/07/03 00:22:40;;;;;;;4.20;2.17;;;15.80;1.00;;;;;;5090117;28;20243;-76
2022/07/03 00:25:15;;;;;;;3.47;2.27;;;15.80;1.00;;;;;;5071995;28;20410;-75
2022/07/03 00:27:49;;;;;;;6.47;2.80;;;15.80;1.00;;;;;;5062852;28;20500;-76
2022/07/03 00:30:16;;;;;;;3.40;2.43;;;15.70;1.00;;;;;;5080203;28;20401;-75
2022/07/03 00:32:42;;;;;;;2.93;2.30;;;15.70;1.00;;;;;;5087064;28;20423;-75
2022/07/03 00:35:09;;;;;;;4.18;2.92;;;15.70;1.00;;;;;;5036989;28;1118198;-76
2022/07/03 00:37:39;;;;;;;3.13;2.57;;;15.60;1.00;;;;;;5059146;28;20187;-75
2022/07/03 00:40:15;;;;;;;2.93;2.70;;;15.50;1.00;;;;;;5061706;28;20476;-75
2022/07/03 00:42:49;;;;;;;2.40;2.20;;;15.40;1.00;;;;;;5056346;28;20491;-75
2022/07/03 00:45:28;;;;;;;4.33;2.50;;;15.40;1.00;;;;;;5076086;28;20399;-81
2022/07/03 00:48:44;;;;;;;2.50;2.30;;;15.40;1.00;;;;;;5068048;28;20768;-81
2022/07/03 00:51:49;;;;;;;6.23;1.97;;;15.40;1.00;;;;;;5057409;28;20425;-81
2022/07/03 00:54:17;;;;;;;2.50;2.30;;;15.40;1.00;;;;;;5058570;28;20429;-81
2022/07/03 01:00:09;;;;;;;3.60;2.43;;;15.30;1.00;;;;;;5060341;28;20915;-76
2022/07/03 01:02:45;;;;;;;4.93;2.30;;;15.20;1.00;;;;;;5074066;28;20375;-76
2022/07/03 01:05:35;;;;;;;11.10;2.53;;;15.20;1.00;;;;;;5071971;28;20767;-75
2022/07/03 01:08:23;;;;;;;3.90;2.53;;;15.10;1.00;;;;;;5064650;28;20418;-75
2022/07/03 01:11:17;;;;;;;2.87;2.50;;;15.10;1.00;;;;;;5057368;28;20410;-75
2022/07/03 01:17:09;;;;;;;6.30;2.63;;;15.00;1.00;;;;;;5045196;28;20930;-81
2022/07/03 01:20:04;;;;;;;2.63;2.43;;;15.00;1.00;;;;;;5032573;28;20417;-81
2022/07/03 01:29:22;;;;;;;4.67;2.70;;;14.90;1.00;;;;;;5032373;28;20465;-81
2022/07/03 01:31:51;;;;;;;4.20;2.73;;;14.90;1.00;;;;;;5036909;28;20462;-75
2022/07/03 01:34:24;;;;;;;3.90;2.83;;;14.80;1.00;;;;;;5033810;28;20834;-75
2022/07/03 01:36:54;;;;;;;2.93;2.73;;;14.80;1.00;;;;;;5012698;28;20446;-75
2022/07/03 01:39:25;;;;;;;4.60;3.43;;;14.80;1.00;;;;;;5027744;28;20397;-75
2022/07/03 01:41:55;;;;;;;2.93;2.63;;;14.80;1.00;;;;;;5022173;28;20423;-75
2022/07/03 01:44:25;;;;;;;5.03;2.87;;;14.70;1.00;;;;;;5032612;28;20423;-75
2022/07/03 01:47:03;;;;;;;3.43;2.83;;;14.70;1.00;;;;;;5032795;28;20952;-81
2022/07/03 01:53:22;;;;;;;8.33;3.17;;;14.70;1.00;;;;;;5054497;28;20492;-81
2022/07/03 01:59:11;;;;;;;8.37;3.07;;;14.60;1.00;;;;;;5068608;28;20480;-81
2022/07/03 02:01:57;;;;;;;6.90;3.43;;;14.50;1.00;;;;;;5055824;28;20492;-76
2022/07/03 02:04:33;;;;;;;3.50;3.20;;;14.60;1.00;;;;;;5072740;28;20421;-75
2022/07/03 02:07:12;;;;;;;6.07;3.23;;;14.60;1.00;;;;;;5054413;28;20783;-76
2022/07/03 02:09:56;;;;;;;3.50;3.20;;;14.60;1.00;;;;;;5059069;28;20942;-75
2022/07/03 02:12:28;;;;;;;5.27;3.10;;;14.60;1.00;;;;;;5060028;28;20984;-76
2022/07/03 02:15:05;;;;;;;3.70;3.30;;;14.60;1.00;;;;;;5054434;28;20470;-77
2022/07/03 02:17:45;;;;;;;4.83;3.20;;;14.50;1.00;;;;;;5054121;28;20460;-75
2022/07/03 02:20:12;;;;;;;4.70;3.13;;;14.50;1.00;;;;;;5059037;28;20384;-76
2022/07/03 02:23:03;;;;;;;7.30;3.10;;;14.40;1.00;;;;;;5083372;28;20451;-77
2022/07/03 02:25:34;;;;;;;9.27;3.07;;;14.40;1.00;;;;;;5067599;28;20440;-76
2022/07/03 02:28:34;;;;;;;3.13;2.87;;;14.40;1.00;;;;;;5052795;28;20565;-76
2022/07/03 02:41:58;;;;;;;3.37;3.07;;;14.20;1.00;;;;;;5060736;28;20432;-81
2022/07/03 02:51:28;;;;;;;3.47;3.17;;;14.10;1.00;;;;;;5030573;28;20411;-81
2022/07/03 03:00:57;;;;;;;3.70;3.40;;;14.00;1.00;;;;;;5023627;28;20482;-75
2022/07/03 03:03:27;;;;;;;5.20;3.80;;;14.00;1.00;;;;;;5030997;28;20435;-75
2022/07/03 03:06:10;;;;;;;8.10;3.80;;;14.00;1.00;;;;;;5031727;28;20401;-76
2022/07/03 03:09:00;;;;;;;4.00;3.37;;;14.00;1.00;;;;;;5031218;28;20426;-76
2022/07/03 03:11:43;;;;;;;4.20;3.80;;;14.00;1.00;;;;;;5033434;28;20461;-76
2022/07/03 03:14:20;;;;;;;8.43;4.57;;;14.00;1.00;;;;;;5035101;28;20771;-75
2022/07/03 03:17:26;;;;;;;5.00;4.07;;;14.00;1.00;;;;;;5035797;28;20418;-75
2022/07/03 03:20:03;;;;;;;6.63;4.00;;;14.00;1.00;;;;;;5052510;28;20406;-76
2022/07/03 03:23:13;;;;;;;4.87;4.30;;;13.90;1.00;;;;;;5084387;28;20883;-76
2022/07/03 03:25:39;;;;;;;4.27;3.70;;;13.90;1.00;;;;;;5015435;28;20506;-76
2022/07/03 03:28:15;;;;;;;9.87;3.73;;;13.90;1.00;;;;;;4999334;28;20493;-76
2022/07/03 03:31:14;;;;;;;7.23;4.00;;;13.90;1.00;;;;;;5020741;28;20191;-81
2022/07/03 03:33:59;;;;;;;4.03;3.73;;;13.90;1.00;;;;;;5014885;28;20424;-81
2022/07/03 03:40:04;;;;;;;5.17;3.93;;;13.80;1.00;;;;;;5021322;28;21113;-82
2022/07/03 03:46:25;;;;;;;6.27;3.90;;;13.90;1.00;;;;;;5028575;28;20403;-76
2022/07/03 03:48:50;;;;;;;4.30;3.90;;;13.90;1.00;;;;;;5034769;28;20401;-76
2022/07/03 03:51:33;;;;;;;6.37;4.57;;;13.90;1.00;;;;;;5002037;28;21028;-75
2022/07/03 03:54:04;;;;;;;4.40;3.47;;;13.90;1.00;;;;;;5042496;28;20203;-76
2022/07/03 03:57:08;;;;;;;4.80;4.00;;;13.90;1.00;;;;;;5026575;28;20399;-76
2022/07/03 03:59:51;;;;;;;5.27;3.90;;;13.90;1.00;;;;;;5034624;28;20410;-76
2022/07/03 04:05:39;;;;;;;4.33;3.93;;;13.90;1.00;;;;;;5066970;28;20913;-83
2022/07/03 04:11:26;;;;;;;4.47;4.07;;;13.90;1.00;;;;;;5065794;28;20187;-75
2022/07/03 04:13:57;;;;;;;5.10;4.20;;;14.00;1.00;;;;;;5066949;28;20408;-76
2022/07/03 04:16:34;;;;;;;5.00;4.07;;;14.00;1.00;;;;;;5065192;28;20179;-76
2022/07/03 04:19:26;;;;;;;5.00;3.67;;;14.10;1.00;;;;;;5070021;28;20438;-76
2022/07/03 04:22:08;;;;;;;6.97;3.57;;;14.00;1.00;;;;;;5071293;28;20537;-76
2022/07/03 04:24:37;;;;;;;4.37;3.70;;;14.10;1.00;;;;;;5077580;28;20405;-76
2022/07/03 04:27:33;;;;;;;3.77;3.40;;;14.10;1.00;;;;;;5085220;28;20448;-76
2022/07/03 04:30:26;;;;;;;3.67;3.37;;;14.20;1.00;;;;;;5069577;28;20403;-76
2022/07/03 04:33:14;;;;;;;6.20;3.60;;;14.20;1.00;;;;;;5058323;28;20439;-75
2022/07/03 04:35:51;;;;;;;5.57;3.67;;;14.20;1.00;;;;;;5064383;28;20433;-75
2022/07/03 04:38:16;;;;;;;4.00;3.70;;;14.30;1.00;;;;;;5066590;28;20491;-75
2022/07/03 04:40:42;;;;;;;7.33;3.80;;;14.40;1.00;;;;;;5075591;28;20919;-75
2022/07/03 04:43:09;;;;;;;3.77;3.47;;;14.50;1.00;;;;;;5075307;28;20662;-75
2022/07/03 04:45:45;;;;;;;5.13;3.53;;;14.50;1.00;;;;;;5068776;28;20525;-75
2022/07/03 04:48:21;;;;;;;3.50;3.20;;;14.60;1.00;;;;;;5060691;28;20438;-75
2022/07/03 04:50:46;;;;;;;5.50;3.97;;;14.60;1.00;;;;;;5070289;28;20420;-76
2022/07/03 04:53:21;;;;;;;4.50;3.87;;;14.70;1.00;;;;;;5055852;28;20466;-75
2022/07/03 04:55:51;;;;;;;3.97;3.67;;;14.70;1.00;;;;;;5071639;28;20231;-76
2022/07/03 04:58:21;;;;;;;5.50;3.60;;;14.80;1.00;;;;;;5056390;28;20437;-75
2022/07/03 05:00:51;;;;;;;5.07;3.60;;;14.90;1.00;;;;;;5063710;28;20508;-75
2022/07/03 05:04:08;;;;;;;3.80;3.40;;;15.00;1.00;;;;;;5073776;28;20733;-76
2022/07/03 05:06:56;;;;;;;4.73;3.73;;;15.00;1.00;;;;;;5057535;28;20410;-76
2022/07/03 05:09:27;;;;;;;5.40;4.53;;;15.20;1.00;;;;;;5067440;28;20428;-76
2022/07/03 05:11:57;;;;;;;4.60;3.63;;;15.20;1.00;;;;;;5085332;28;20476;-76
2022/07/03 05:14:50;;;;;;;4.00;3.70;;;15.40;1.00;;;;;;5055125;28;20421;-76
2022/07/03 05:17:21;;;;;;;4.60;3.37;;;15.40;1.00;;;;;;5072134;28;20387;-76
2022/07/03 05:20:23;;;;;;;3.20;3.00;;;15.60;1.00;;;;;;5062435;28;20410;-76
2022/07/03 05:22:45;;;;;;;3.80;3.43;;;15.60;1.00;;;;;;5056766;28;20405;-75
2022/07/03 05:25:15;;;;;;;3.77;3.47;;;15.80;1.00;;;;;;5075336;28;20372;-75
2022/07/03 05:28:02;;;;;;;4.37;3.73;;;15.90;1.00;;;;;;5065774;28;20401;-76
2022/07/03 05:30:39;;;;;;;3.87;3.47;;;16.00;1.00;;;;;;5054983;28;20369;-76
2022/07/03 05:33:15;;;;;;;3.60;3.20;;;16.20;1.00;;;;;;5055278;28;20499;-76
2022/07/03 05:35:57;;;;;;;3.17;2.63;;;16.30;1.00;;;;;;5062305;28;20803;-76
2022/07/03 05:41:45;;;;;;;4.30;3.60;;;16.60;1.00;;;;;;5074461;28;20976;-76
2022/07/03 05:44:15;;;;;;;3.73;3.40;;;16.80;1.00;;;;;;5075247;28;20436;-75
2022/07/03 05:47:08;;;;;;;4.90;3.07;;;16.90;1.00;;;;;;5089737;28;20175;-76
2022/07/03 05:49:45;;;;;;;4.60;3.30;;;17.00;1.00;;;;;;5069522;28;20419;-76
2022/07/03 05:52:10;;;;;;;3.80;3.30;;;17.20;1.00;;;;;;5063807;28;20512;-76
2022/07/03 05:55:32;;;;;;;3.87;3.53;;;17.40;1.00;;;;;;5086671;28;20414;-76
2022/07/03 05:57:58;;;;;;;4.33;3.30;;;17.50;1.00;;;;;;5076896;28;20262;-77
2022/07/03 06:00:33;;;;;;;5.23;3.67;;;17.80;1.00;;;;;;5074568;28;20438;-76
2022/07/03 06:03:09;;;;;;;5.33;3.13;;;17.90;1.00;;;;;;5063065;28;20664;-76
2022/07/03 06:05:35;;;;;;;3.57;3.27;;;18.00;1.00;;;;;;5059373;28;20932;-77
2022/07/03 06:08:03;;;;;;;4.57;3.87;;;18.20;1.00;;;;;;5068384;28;20419;-77
2022/07/03 06:10:39;;;;;;;4.40;3.30;;;18.40;1.00;;;;;;5069587;28;20911;-77
2022/07/03 06:13:05;;;;;;;4.50;3.27;;;18.60;1.00;;;;;;5053893;28;20439;-76
2022/07/03 06:15:31;;;;;;;3.60;3.30;;;18.70;1.00;;;;;;5067967;28;20432;-78
2022/07/03 06:18:44;;;;;;;5.03;3.10;;;18.80;1.00;;;;;;5067043;28;20186;-79
2022/07/03 06:21:10;;;;;;;2.83;2.63;;;19.00;1.00;;;;;;5060999;28;20174;-79
2022/07/03 06:27:50;;;;;;;6.37;2.97;;;19.30;1.00;;;;;;5057220;28;20209;-79
2022/07/03 06:30:44;;;;;;;3.33;3.03;;;19.60;1.00;;;;;;5055714;28;20413;-79
2022/07/03 06:33:22;;;;;;;4.60;2.90;;;19.70;1.00;;;;;;5061403;28;20458;-80
2022/07/03 06:35:51;;;;;;;7.03;3.37;;;19.90;1.00;;;;;;5054697;28;20860;-86
2022/07/03 06:41:57;;;;;;;5.60;3.60;;;20.30;1.00;;;;;;5060301;28;20523;-82
2022/07/03 06:44:27;;;;;;;3.60;3.00;;;20.50;1.00;;;;;;5069453;28;20898;-81
2022/07/03 06:47:26;;;;;;;5.90;3.30;;;20.60;1.00;;;;;;5063315;28;20930;-81
2022/07/03 06:49:57;;;;;;;3.40;2.77;;;20.80;1.00;;;;;;5078832;28;20762;-79
2022/07/03 06:52:56;;;;;;;5.30;2.77;;;21.00;1.00;;;;;;5064675;28;20447;-80
2022/07/03 06:56:14;;;;;;;4.37;3.00;;;21.10;1.00;;;;;;5053674;28;20761;-80
2022/07/03 07:05:57;;;;;;;3.97;2.37;;;21.80;1.00;;;;;;5058239;28;20398;-79
2022/07/03 07:08:56;;;;;;;3.20;2.60;;;21.90;1.00;;;;;;5053219;28;20487;-77
2022/07/03 07:11:56;;;;;;;3.77;2.60;;;22.00;1.00;;;;;;5059677;28;20496;-79
2022/07/03 07:21:06;;;;;;;2.60;2.40;;;22.40;1.00;;;;;;5066270;28;20720;-81
2022/07/03 07:23:32;;;;;;;2.73;2.53;;;22.60;1.00;;;;;;5070309;28;20500;-81
2022/07/03 07:26:26;;;;;;;5.07;3.10;;;22.70;1.00;;;;;;5053400;28;20246;-81
2022/07/03 07:28:57;;;;;;;4.10;2.40;;;22.80;1.00;;;;;;5066550;28;20196;-83
2022/07/03 07:31:39;;;;;;;6.60;2.30;;;22.90;1.00;;;;;;5051647;28;20869;-81
2022/07/03 07:34:15;;;;;;;4.53;2.43;;;22.90;1.00;;;;;;5075337;28;20936;-79
2022/07/03 07:37:26;;;;;;;2.80;2.10;;;23.00;1.00;;;;;;5054633;28;20921;-79
2022/07/03 07:40:26;;;;;;;2.73;2.30;;;23.20;1.00;;;;;;5058063;28;20441;-77
2022/07/03 07:46:14;;;;;;;6.30;2.27;;;23.40;1.00;;;;;;5079721;28;20913;-75
2022/07/03 07:48:45;;;;;;;2.80;2.37;;;23.50;1.00;;;;;;5061357;28;20418;-77
2022/07/03 07:51:21;;;;;;;2.40;2.07;;;23.60;1.00;;;;;;5070586;28;20416;-78
2022/07/03 07:54:03;;;;;;;3.20;2.17;;;23.70;1.00;;;;;;5053233;28;20715;-78
2022/07/03 07:56:45;;;;;;;2.47;2.27;;;23.80;1.00;;;;;;5066188;28;20732;-79
2022/07/03 07:59:56;;;;;;;11.77;2.30;;;24.00;1.00;;;;;;5089835;28;20398;-77
2022/07/03 08:05:51;;;;;;;2.07;1.97;;;24.20;1.00;;;;;;5070052;28;20495;-75
2022/07/03 08:08:21;;;;;;;2.90;2.13;;;24.20;1.00;;;;;;5076383;28;20423;-76
2022/07/03 08:11:20;;;;;;;2.93;2.20;;;24.10;1.00;;;;;;5072240;28;20424;-76
2022/07/03 08:13:51;;;;;;;2.20;2.00;;;24.10;1.00;;;;;;5066014;28;20428;-76
2022/07/03 08:16:17;;;;;;;2.10;2.00;;;24.30;1.00;;;;;;5070342;28;20428;-75
2022/07/03 08:18:52;;;;;;;1.93;1.83;;;24.50;1.00;;;;;;5083005;28;20906;-76
2022/07/03 08:21:36;;;;;;;2.83;2.10;;;24.60;1.00;;;;;;5071389;28;20435;-76
2022/07/03 08:27:27;;;;;;;3.90;1.67;;;25.00;1.00;;;;;;5062669;28;21027;-91
2022/07/03 08:33:22;;;;;;;1.80;1.70;;;25.20;1.00;;;;;;5056763;28;20458;-83
2022/07/03 08:35:57;;;;;;;1.80;1.70;;;25.30;1.00;;;;;;5074371;28;20422;-82
2022/07/03 08:38:32;;;;;;;2.30;1.70;;;25.40;1.00;;;;;;5069130;28;20415;-82
2022/07/03 08:41:00;;;;;;;4.57;1.60;;;25.50;1.00;;;;;;5063566;28;20422;-82
2022/07/03 08:43:27;;;;;;;4.00;1.93;;;25.70;1.00;;;;;;5072659;28;20985;-81
2022/07/03 08:46:00;;;;;;;6.90;1.80;;;25.80;1.00;;;;;;5065580;28;20454;-82
2022/07/03 08:48:28;;;;;;;3.17;1.60;;;25.90;1.00;;;;;;5059951;28;20435;-82
2022/07/03 08:51:27;;;;;;;1.80;1.70;;;25.90;1.00;;;;;;5079781;28;20421;-82
2022/07/03 08:53:54;;;;;;;1.40;1.30;;;26.00;1.00;;;;;;5059769;28;20437;-77
2022/07/03 08:56:21;;;;;;;6.87;1.60;;;26.10;1.00;;;;;;5069601;28;20411;-77
2022/07/03 08:58:47;;;;;;;1.80;1.60;;;26.20;1.00;;;;;;5074211;28;20403;-77
2022/07/03 09:01:21;;;;;;;5.53;1.60;;;26.10;1.00;;;;;;5072561;28;20425;-77
2022/07/03 09:03:50;;;;;;;2.00;1.90;;;26.10;1.00;;;;;;5072041;28;20180;-77
2022/07/03 09:06:33;;;;;;;6.13;1.53;;;26.20;1.00;;;;;;5063856;28;20943;-77
2022/07/03 09:09:03;;;;;;;15.80;1.77;;;26.30;1.00;;;;;;5059420;28;20417;-77
2022/07/03 09:11:29;;;;;;;1.70;1.60;;;26.40;1.00;;;;;;5067118;28;20406;-76
2022/07/03 09:13:55;;;;;;;3.33;1.50;;;26.60;1.00;;;;;;5063997;28;20434;-76
2022/07/03 09:16:45;;;;;;;5.30;1.43;;;26.70;1.00;;;;;;5073857;28;20210;-78
2022/07/03 09:19:10;;;;;;;2.50;1.70;;;26.70;1.00;;;;;;5063477;28;20266;-76
2022/07/03 09:21:56;;;;;;;11.10;1.70;;;26.70;1.00;;;;;;5064731;28;20504;-79
2022/07/03 09:24:32;;;;;;;1.77;1.57;;;26.80;1.00;;;;;;5059129;28;20223;-79
2022/07/03 09:27:20;;;;;;;1.60;1.50;;;26.90;1.00;;;;;;5059918;28;20506;-77
2022/07/03 09:30:06;;;;;;;1.50;1.40;;;27.00;1.00;;;;;;5068322;28;20739;-82
2022/07/03 09:32:56;;;;;;;2.33;1.47;;;27.10;1.00;;;;;;5065637;28;20844;-82
2022/07/03 09:35:27;;;;;;;2.03;1.47;;;27.00;1.00;;;;;;5062891;28;20905;-82
2022/07/03 09:37:59;;;;;;;2.03;1.40;;;27.20;1.00;;;;;;5072921;28;20443;-82
2022/07/03 09:40:57;;;;;;;1.93;1.20;;;27.30;1.00;;;;;;5063552;28;20441;-83
2022/07/03 09:43:30;;;;;;;2.20;1.47;;;27.40;1.00;;;;;;5067935;28;20426;-82
2022/07/03 09:46:26;;;;;;;4.60;1.67;;;27.60;1.00;;;;;;5066999;28;20431;-82
2022/07/03 09:52:29;;;;;;;9.90;1.30;;;27.70;1.00;;;;;;5066118;28;20452;-82
2022/07/03 09:55:26;;;;;;;2.30;1.50;;;27.80;1.00;;;;;;5061790;28;20409;-82
2022/07/03 10:01:27;;;;;;;13.50;1.37;;;28.30;1.00;;;;;;5060957;28;20436;-82
2022/07/03 10:04:16;;;;;;;2.23;1.40;;;28.40;1.00;;;;;;5060996;28;20966;-82
2022/07/03 10:06:57;;;;;;;6.30;1.40;;;28.50;1.00;;;;;;5056440;28;20456;-82
2022/07/03 10:09:29;;;;;;;2.90;1.10;;;28.80;1.00;;;;;;5071395;28;20416;-82
2022/07/03 10:11:59;;;;;;;3.40;1.07;;;28.80;1.00;;;;;;5053967;28;20456;-82
2022/07/03 10:14:29;;;;;;;8.87;1.30;;;28.80;1.00;;;;;;5072607;28;20430;-81
2022/07/03 10:17:26;;;;;;;1.80;1.23;;;28.70;1.00;;;;;;5085325;28;20895;-82
2022/07/03 10:20:28;;;;;;;3.47;1.30;;;28.50;1.00;;;;;;5062349;28;20999;-82
2022/07/03 10:22:57;;;;;;;2.30;1.10;;;28.60;1.00;;;;;;5058067;28;20424;-82
2022/07/03 10:25:27;;;;;;;36.90;2.03;;;28.50;1.00;;;;;;5073726;28;20787;-83
2022/07/03 10:27:53;;;;;;;1.23;0.90;;;28.40;1.00;;;;;;5069773;28;20920;-75
2022/07/03 10:30:21;;;;;;;1.40;1.00;;;28.60;1.00;;;;;;5073892;28;20868;-75
2022/07/03 10:32:48;;;;;;;1.03;0.93;;;28.80;1.00;;;;;;5060008;28;20491;-75
2022/07/03 10:35:21;;;;;;;2.40;0.90;;;28.80;1.00;;;;;;5067468;28;20431;-75
2022/07/03 10:38:02;;;;;;;1.87;1.00;;;28.90;1.00;;;;;;5061730;28;21056;-75
2022/07/03 10:46:33;;;;;;;2.30;1.00;;;29.20;1.00;;;;;;5079914;28;20940;-75
2022/07/03 10:49:13;;;;;;;3.23;1.10;;;29.10;1.00;;;;;;5082438;28;20581;-75
2022/07/03 10:52:01;;;;;;;4.40;1.10;;;29.10;1.00;;;;;;5053798;28;20454;-78
2022/07/03 10:54:57;;;;;;;1.50;1.27;;;29.30;1.00;;;;;;5060678;28;20427;-79
2022/07/03 10:58:10;;;;;;;7.03;1.00;;;29.60;1.00;;;;;;5054996;28;20564;-79
2022/07/03 11:04:46;;;;;;;5.03;0.90;;;30.10;1.00;;;;;;5053618;28;20967;-79
2022/07/03 11:10:43;;;;;;;1.53;0.90;;;30.10;1.00;;;;;;5053370;28;20421;-79
2022/07/03 11:13:27;;;;;;;4.20;1.07;;;30.40;1.00;;;;;;5054754;28;20445;-79
2022/07/03 11:16:03;;;;;;;3.03;0.80;;;30.60;1.00;;;;;;5083702;28;20830;-79
2022/07/03 11:22:00;;;;;;;0.87;0.87;;;31.00;1.00;;;;;;5070252;28;20420;-75
2022/07/03 11:24:45;;;;;;;1.83;0.90;;;31.30;1.00;;;;;;5073921;28;20404;-76
2022/07/03 11:27:23;;;;;;;1.90;0.80;;;31.10;1.00;;;;;;5093507;28;20393;-75
2022/07/03 11:29:50;;;;;;;2.73;0.90;;;31.00;1.00;;;;;;5057933;28;20788;-75
2022/07/03 11:32:52;;;;;;;1.43;0.80;;;31.10;1.00;;;;;;5056171;28;20450;-75
2022/07/03 11:42:01;;;;;;;1.90;0.80;;;31.00;1.00;;;;;;5056820;28;21078;-79
2022/07/03 11:47:49;;;;;;;5.50;0.83;;;31.10;1.00;;;;;;5057078;28;20167;-79
2022/07/03 11:50:15;;;;;;;4.10;0.70;;;31.10;1.00;;;;;;5057566;28;20789;-75
2022/07/03 11:52:41;;;;;;;3.80;1.00;;;30.90;1.00;;;;;;5089920;28;20475;-75
2022/07/03 11:55:07;;;;;;;3.43;0.87;;;30.60;1.00;;;;;;5089619;28;20174;-75
2022/07/03 11:57:32;;;;;;;1.33;0.80;;;30.60;1.00;;;;;;5071736;28;20514;-75
2022/07/03 12:00:05;;;;;;;1.43;0.80;;;30.50;1.00;;;;;;5084217;28;20646;-75
2022/07/03 12:02:33;;;;;;;3.23;0.90;;;30.30;1.00;;;;;;5073623;28;20677;-75
2022/07/03 12:05:14;;;;;;;2.80;0.70;;;30.00;1.00;;;;;;5076655;28;20424;-75
2022/07/03 12:17:46;;;;;;;4.23;0.87;;;30.00;1.00;;;;;;5066683;28;20423;-78
2022/07/03 12:20:17;;;;;;;1.00;0.90;;;30.30;1.00;;;;;;5075993;28;20386;-78
2022/07/03 12:22:51;;;;;;;49.63;1.93;;;30.60;1.00;;;;;;5062883;28;20431;-79
2022/07/03 12:25:29;;;;;;;1.10;0.60;;;30.70;1.00;;;;;;5072326;28;20775;-79
2022/07/03 12:27:57;;;;;;;1.30;0.80;;;30.70;1.00;;;;;;5063129;28;20401;-79
2022/07/03 12:30:51;;;;;;;4.20;0.90;;;30.40;1.00;;;;;;5069646;28;20497;-79
2022/07/03 12:33:16;;;;;;;2.13;1.40;;;30.30;1.00;;;;;;5067045;28;20449;-80
2022/07/03 12:36:11;;;;;;;3.00;1.90;;;30.20;1.00;;;;;;5059821;28;20449;-79
2022/07/03 12:38:37;;;;;;;20.57;10.40;;;30.40;1.00;;;;;;5054214;28;20195;-79
2022/07/03 12:41:27;;;;;;;22.70;9.70;;;30.70;1.00;;;;;;5075636;28;20414;-79
2022/07/03 12:44:04;;;;;;;4.40;0.80;;;30.80;1.00;;;;;;5074461;28;20492;-78
2022/07/03 12:47:02;;;;;;;8.43;3.40;;;30.90;1.00;;;;;;5061855;28;20418;-79
2022/07/03 12:49:45;;;;;;;2.50;0.80;;;31.00;1.00;;;;;;5068021;28;20981;-81
2022/07/03 12:52:59;;;;;;;3.40;2.00;;;31.30;1.00;;;;;;5090518;28;20849;-79
2022/07/03 12:55:45;;;;;;;0.70;0.70;;;31.70;1.00;;;;;;5022541;28;20791;-78
2022/07/03 13:04:44;;;;;;;2.70;1.70;;;32.10;1.00;;;;;;5004200;28;20979;-80
2022/07/03 13:07:31;;;;;;;0.87;0.87;;;32.10;1.00;;;;;;5012473;28;20416;-81
2022/07/03 13:10:33;;;;;;;1.40;1.30;;;31.90;1.00;;;;;;5013271;28;20416;-81
2022/07/03 13:13:09;;;;;;;0.80;0.80;;;31.50;1.00;;;;;;5013176;28;20529;-79
2022/07/03 13:16:20;;;;;;;0.90;0.80;;;31.40;1.00;;;;;;5007255;28;20499;-81
2022/07/03 13:22:08;;;;;;;1.47;1.00;;;31.70;1.00;;;;;;5002131;28;20950;-80
2022/07/03 13:25:03;;;;;;;2.70;0.90;;;31.80;1.00;;;;;;5011644;28;20432;-78
2022/07/03 13:28:03;;;;;;;2.00;0.70;;;31.50;1.00;;;;;;5013064;28;20185;-79
2022/07/03 13:30:50;;;;;;;1.67;0.80;;;31.30;1.00;;;;;;5003828;28;21374;-80
2022/07/03 13:33:21;;;;;;;1.20;0.80;;;31.50;1.00;;;;;;5061352;28;20453;-80
2022/07/03 13:36:03;;;;;;;6.30;0.77;;;31.80;1.00;;;;;;5055714;28;20946;-79
2022/07/03 13:38:29;;;;;;;1.50;1.10;;;32.00;1.00;;;;;;5064068;28;20413;-75
2022/07/03 13:40:54;;;;;;;2.40;0.90;;;32.40;1.00;;;;;;5070027;28;20422;-75
2022/07/03 13:43:20;;;;;;;0.80;0.80;;;32.40;1.00;;;;;;5073671;28;20186;-75
2022/07/03 13:45:46;;;;;;;1.93;0.70;;;32.50;1.00;;;;;;5060876;28;20186;-75
2022/07/03 13:48:11;;;;;;;1.00;0.90;;;32.60;1.00;;;;;;5073319;28;20656;-75
2022/07/03 13:50:42;;;;;;;2.33;0.80;;;32.80;1.00;;;;;;5080981;28;20183;-75
2022/07/03 13:53:09;;;;;;;2.97;1.00;;;32.90;1.00;;;;;;5080937;28;20676;-75
2022/07/03 13:55:35;;;;;;;2.90;0.80;;;33.30;1.00;;;;;;5063997;28;20410;-76
2022/07/03 13:58:05;;;;;;;1.33;0.80;;;33.50;1.00;;;;;;5074213;28;20791;-74
2022/07/03 14:00:31;;;;;;;1.13;0.73;;;33.40;1.00;;;;;;5073420;28;20417;-74
2022/07/03 14:02:56;;;;;;;8.43;0.80;;;33.40;1.00;;;;;;5071511;28;20470;-76
2022/07/03 14:05:22;;;;;;;1.40;0.73;;;33.50;1.00;;;;;;5061940;28;20187;-75
2022/07/03 14:07:51;;;;;;;0.73;0.73;;;33.60;1.00;;;;;;5074419;28;20175;-74
2022/07/03 14:10:17;;;;;;;2.60;0.80;;;33.50;1.00;;;;;;5063062;28;20414;-75
2022/07/03 14:12:45;;;;;;;1.70;0.73;;;33.20;1.00;;;;;;5069698;28;20465;-77
2022/07/03 14:15:15;;;;;;;2.30;0.80;;;33.20;1.00;;;;;;5073861;28;20422;-75
2022/07/03 14:17:43;;;;;;;3.57;0.80;;;33.40;1.00;;;;;;5085061;28;20413;-75
2022/07/03 14:20:10;;;;;;;0.93;0.90;;;33.70;1.00;;;;;;5060263;28;20501;-75
2022/07/03 14:22:56;;;;;;;1.67;0.67;;;34.10;1.00;;;;;;5073690;28;20825;-78
2022/07/03 14:25:39;;;;;;;2.77;1.10;;;34.00;1.00;;;;;;5064727;28;20426;-78
2022/07/03 14:34:15;;;;;;;0.90;0.80;;;33.90;1.00;;;;;;5075987;28;20649;-78
2022/07/03 14:36:40;;;;;;;0.70;0.70;;;34.00;1.00;;;;;;5059494;28;21002;-75
2022/07/03 14:39:06;;;;;;;5.27;0.90;;;33.90;1.00;;;;;;5070352;28;20189;-71
2022/07/03 14:41:32;;;;;;;1.83;0.80;;;33.80;1.00;;;;;;5069198;28;20287;-71
2022/07/03 14:43:57;;;;;;;0.77;0.77;;;33.90;1.00;;;;;;5065261;28;20534;-71
2022/07/03 14:46:23;;;;;;;2.37;0.70;;;33.90;1.00;;;;;;5071786;28;20650;-71
2022/07/03 14:48:49;;;;;;;1.80;0.90;;;33.80;1.00;;;;;;5073220;28;20646;-71
2022/07/03 14:51:14;;;;;;;2.50;0.80;;;33.30;1.00;;;;;;5073412;28;20180;-71
2022/07/03 14:53:42;;;;;;;1.17;0.70;;;33.10;1.00;;;;;;5073176;28;20205;-71
2022/07/03 14:56:16;;;;;;;5.17;0.70;;;33.10;1.00;;;;;;5067520;28;20619;-71
2022/07/03 14:58:44;;;;;;;2.57;0.87;;;32.80;1.00;;;;;;5073308;28;20479;-72
2022/07/03 15:01:10;;;;;;;6.03;0.83;;;32.40;1.00;;;;;;5072995;28;20421;-72
2022/07/03 15:03:42;;;;;;;1.53;0.70;;;32.40;1.00;;;;;;5071645;28;20472;-71
2022/07/03 15:06:10;;;;;;;1.10;0.60;;;32.40;1.00;;;;;;5073314;28;20468;-72
2022/07/03 15:09:02;;;;;;;1.10;0.70;;;32.40;1.00;;;;;;5070269;28;20480;-73
2022/07/03 15:14:42;;;;;;;5.13;0.80;;;33.90;1.00;;;;;;5064503;28;20436;-84
2022/07/03 15:17:27;;;;;;;0.80;0.80;;;33.70;1.00;;;;;;5088013;28;20756;-82
2022/07/03 15:20:31;;;;;;;2.60;1.23;;;33.50;1.00;;;;;;5081562;28;20932;-82
2022/07/03 15:23:16;;;;;;;2.63;0.60;;;33.50;1.00;;;;;;5071250;28;20418;-84
2022/07/03 15:29:05;;;;;;;1.37;0.77;;;37.50;1.00;;;;;;5080292;28;20915;-83
2022/07/03 15:34:52;;;;;;;0.77;0.73;;;38.50;1.00;;;;;;5067939;28;21082;-83
2022/07/03 15:48:08;;;;;;;0.83;0.83;;;40.10;1.00;;;;;;5063626;28;20404;-85
2022/07/03 15:50:48;;;;;;;2.20;0.60;;;41.10;1.00;;;;;;5085731;28;20785;-85
2022/07/03 15:53:30;;;;;;;1.33;0.70;;;41.60;1.00;;;;;;5072392;28;20552;-86
2022/07/03 15:56:05;;;;;;;3.30;0.70;;;43.10;1.00;;;;;;5067043;28;20427;-86
2022/07/03 16:02:14;;;;;;;1.33;0.60;;;45.40;1.00;;;;;;5062907;28;20539;-87
2022/07/03 16:15:22;;;;;;;1.47;0.70;;;47.20;1.00;;;;;;5067118;28;20966;-88
2022/07/03 16:18:32;;;;;;;5.70;0.70;;;44.00;1.00;;;;;;5072201;28;20444;-78
2022/07/03 16:24:23;;;;;;;1.93;0.70;;;39.20;1.00;;;;;;5077288;28;20489;-75
2022/07/03 16:26:51;;;;;;;1.17;0.73;;;38.10;1.00;;;;;;5068680;28;20421;-76
2022/07/03 16:29:17;;;;;;;4.60;0.90;;;37.80;1.00;;;;;;5075961;28;20417;-79
2022/07/03 16:31:48;;;;;;;1.00;0.73;;;39.00;1.00;;;;;;5069967;28;20414;-78
2022/07/03 16:34:49;;;;;;;1.60;0.70;;;40.00;1.00;;;;;;5062844;28;20229;-78
2022/07/03 16:37:30;;;;;;;5.83;0.80;;;40.60;1.00;;;;;;5055988;28;20779;-79
2022/07/03 16:43:22;;;;;;;1.73;0.70;;;38.90;1.00;;;;;;5055680;28;20417;-83
2022/07/03 16:49:12;;;;;;;2.10;0.70;;;37.30;1.00;;;;;;5061079;28;20443;-82
2022/07/03 16:52:10;;;;;;;0.70;0.70;;;38.00;1.00;;;;;;5055809;28;20406;-83
2022/07/03 16:54:41;;;;;;;2.60;0.70;;;39.90;1.00;;;;;;5081535;28;20447;-79
2022/07/03 16:57:09;;;;;;;0.70;0.70;;;42.00;1.00;;;;;;5056169;28;20399;-79
2022/07/03 16:59:52;;;;;;;1.03;0.60;;;43.00;1.00;;;;;;5083177;28;20443;-79
2022/07/03 17:02:40;;;;;;;0.90;0.60;;;44.70;1.00;;;;;;5073554;28;20425;-79
2022/07/03 17:05:27;;;;;;;3.00;0.70;;;44.80;1.00;;;;;;5068294;28;20420;-79
2022/07/03 17:08:09;;;;;;;1.80;0.63;;;43.80;1.00;;;;;;5079667;28;20758;-79
2022/07/03 17:10:40;;;;;;;1.30;0.77;;;42.70;1.00;;;;;;5084731;28;20408;-78
2022/07/03 17:13:05;;;;;;;1.63;0.60;;;43.10;1.00;;;;;;5084474;28;20547;-79